createdAt,value
2018-11-03T00:01:00.745Z,94420.16
2018-11-03T00:03:28.634Z,94426.14
2018-11-03T00:05:56.936Z,94422.97
2018-11-03T00:08:25.228Z,94421.38
2018-11-03T00:10:53.329Z,94427.80
2018-11-03T00:13:21.256Z,94421.98
2018-11-03T00:15:49.217Z,94427.74
2018-11-03T00:18:17.266Z,94418.93
2018-11-03T00:20:45.226Z,94418.30
2018-11-03T00:23:13.291Z,94413.60
2018-11-03T00:25:41.267Z,94410.90
2018-11-03T00:28:09.363Z,94411.52
2018-11-03T00:30:37.365Z,94413.08
2018-11-03T00:33:05.585Z,94405.00
2018-11-03T00:35:33.526Z,94402.45
2018-11-03T00:38:01.468Z,94410.75
2018-11-03T00:40:29.463Z,94415.30
2018-11-03T00:42:57.575Z,94413.54
2018-11-03T00:45:25.501Z,94408.45
2018-11-03T00:47:53.424Z,94398.18
2018-11-03T00:50:21.425Z,94399.61
2018-11-03T00:52:49.341Z,94394.39
2018-11-03T00:55:17.311Z,94396.70
2018-11-03T00:57:45.213Z,94395.98
2018-11-03T01:00:15.301Z,94392.33
2018-11-03T01:02:44.383Z,94388.95
2018-11-03T01:05:12.821Z,94390.11
2018-11-03T01:07:41.592Z,94390.80
2018-11-03T01:10:09.768Z,94390.80
2018-11-03T01:12:38.508Z,94386.19
2018-11-03T01:15:08.289Z,94393.33
2018-11-03T01:17:36.204Z,94392.23
2018-11-03T01:20:04.851Z,94394.16
2018-11-03T01:22:32.757Z,94390.61
2018-11-03T01:25:00.725Z,94396.96
2018-11-03T01:27:28.660Z,94387.58
2018-11-03T01:29:56.600Z,94389.78
2018-11-03T01:32:24.591Z,94390.53
2018-11-03T01:34:52.582Z,94389.76
2018-11-03T01:37:20.537Z,94387.89
2018-11-03T01:39:48.513Z,94386.31
2018-11-03T01:42:16.474Z,94388.23
2018-11-03T01:44:44.437Z,94386.73
2018-11-03T01:47:12.386Z,94379.69
2018-11-03T01:49:40.379Z,94382.39
2018-11-03T01:52:08.309Z,94373.58
2018-11-03T01:54:36.360Z,94380.23
2018-11-03T01:57:04.492Z,94377.53
2018-11-03T01:59:32.539Z,94372.21
2018-11-03T02:02:00.524Z,94373.89
2018-11-03T02:04:28.418Z,94389.19
2018-11-03T02:06:56.344Z,94385.00
2018-11-03T02:09:24.297Z,94388.50
2018-11-03T02:11:52.389Z,94390.78
2018-11-03T02:14:20.335Z,94386.22
2018-11-03T02:16:48.458Z,94386.15
2018-11-03T02:19:16.474Z,94383.20
2018-11-03T02:21:44.507Z,94389.88
2018-11-03T02:24:12.616Z,94384.42
2018-11-03T02:26:40.624Z,94388.22
2018-11-03T02:29:08.934Z,94388.17
2018-11-03T02:31:37.152Z,94390.87
2018-11-03T02:34:05.125Z,94390.41
2018-11-03T02:36:33.136Z,94387.55
2018-11-03T02:39:01.078Z,94387.80
2018-11-03T02:41:29.348Z,94384.58
2018-11-03T02:43:57.399Z,94388.20
2018-11-03T02:46:25.301Z,94389.81
2018-11-03T02:48:53.214Z,94388.48
2018-11-03T02:51:21.161Z,94380.69
2018-11-03T02:53:49.241Z,94377.75
2018-11-03T02:56:17.240Z,94375.72
2018-11-03T02:58:45.395Z,94379.72
2018-11-03T03:01:13.361Z,94381.45
2018-11-03T03:03:41.425Z,94384.66
2018-11-03T03:06:09.343Z,94383.72
2018-11-03T03:08:37.263Z,94387.41
2018-11-03T03:11:05.292Z,94390.33
2018-11-03T03:13:33.232Z,94385.88
2018-11-03T03:16:01.195Z,94388.73
2018-11-03T03:18:29.161Z,94385.98
2018-11-03T03:20:57.091Z,94380.27
2018-11-03T03:23:24.985Z,94381.41
2018-11-03T03:25:53.029Z,94383.56
2018-11-03T03:28:20.965Z,94381.72
2018-11-03T03:30:48.900Z,94385.45
2018-11-03T03:33:16.883Z,94382.70
2018-11-03T03:35:44.923Z,94381.70
2018-11-03T03:38:12.817Z,94377.92
2018-11-03T03:40:40.856Z,94379.57
2018-11-03T03:43:08.773Z,94375.07
2018-11-03T03:45:36.751Z,94378.44
2018-11-03T03:48:04.746Z,94378.55
2018-11-03T03:50:32.707Z,94375.81
2018-11-03T03:53:00.753Z,94379.03
2018-11-03T03:55:28.734Z,94379.14
2018-11-03T03:57:56.876Z,94377.67
2018-11-03T04:00:24.945Z,94376.63
2018-11-03T04:02:52.971Z,94375.80
2018-11-03T04:05:20.928Z,94375.78
2018-11-03T04:07:48.899Z,94374.21
2018-11-03T04:10:16.955Z,94378.14
2018-11-03T04:12:45.096Z,94377.02
2018-11-03T04:15:13.126Z,94373.61
2018-11-03T04:17:41.191Z,94374.56
2018-11-03T04:20:09.164Z,94372.81
2018-11-03T04:22:37.189Z,94377.15
2018-11-03T04:25:05.446Z,94377.25
2018-11-03T04:27:33.711Z,94380.53
2018-11-03T04:30:01.674Z,94383.03
2018-11-03T04:32:29.666Z,94383.48
2018-11-03T04:34:57.782Z,94379.74
2018-11-03T04:37:25.760Z,94382.48
2018-11-03T04:39:54.053Z,94381.23
2018-11-03T04:42:22.024Z,94384.33
2018-11-03T04:44:50.223Z,94381.80
2018-11-03T04:47:18.243Z,94381.19
2018-11-03T04:49:46.283Z,94384.88
2018-11-03T04:52:14.186Z,94390.14
2018-11-03T04:54:42.135Z,94390.66
2018-11-03T04:57:10.297Z,94389.67
2018-11-03T04:59:38.578Z,94394.66
2018-11-03T05:02:06.806Z,94396.45
2018-11-03T05:04:34.732Z,94404.80
2018-11-03T05:07:02.835Z,94402.68
2018-11-03T05:09:30.793Z,94402.84
2018-11-03T05:11:58.774Z,94399.00
2018-11-03T05:14:26.664Z,94399.33
2018-11-03T05:16:54.702Z,94393.00
2018-11-03T05:19:22.691Z,94399.79
2018-11-03T05:21:50.758Z,94396.56
2018-11-03T05:24:18.919Z,94405.62
2018-11-03T05:26:46.977Z,94399.16
2018-11-03T05:29:15.017Z,94400.02
2018-11-03T05:31:42.987Z,94401.72
2018-11-03T05:34:11.322Z,94408.28
2018-11-03T05:36:39.441Z,94405.87
2018-11-03T05:39:09.732Z,94410.55
2018-11-03T05:41:37.909Z,94412.06
2018-11-03T05:44:05.874Z,94417.84
2018-11-03T05:46:33.894Z,94415.98
2018-11-03T05:49:02.113Z,94420.55
2018-11-03T05:51:30.014Z,94416.06
2018-11-03T05:53:57.984Z,94424.69
2018-11-03T05:56:25.965Z,94430.16
2018-11-03T05:58:54.196Z,94434.82
2018-11-03T06:01:22.172Z,94440.22
2018-11-03T06:03:50.472Z,94431.95
2018-11-03T06:06:18.467Z,94440.16
2018-11-03T06:08:46.699Z,94432.88
2018-11-03T06:11:14.941Z,94437.38
2018-11-03T06:13:43.192Z,94440.98
2018-11-03T06:16:11.660Z,94437.61
2018-11-03T06:18:40.545Z,94440.23
2018-11-03T06:21:09.057Z,94431.56
2018-11-03T06:23:37.360Z,94441.03
2018-11-03T06:26:05.878Z,94438.43
2018-11-03T06:28:33.991Z,94435.96
2018-11-03T06:31:02.210Z,94441.96
2018-11-03T06:33:30.342Z,94438.62
2018-11-03T06:35:58.388Z,94442.75
2018-11-03T06:38:26.440Z,94433.59
2018-11-03T06:40:54.542Z,94438.86
2018-11-03T06:43:22.715Z,94451.47
2018-11-03T06:45:50.859Z,94440.25
2018-11-03T06:48:18.876Z,94444.14
2018-11-03T06:50:47.136Z,94449.34
2018-11-03T06:53:15.460Z,94442.73
2018-11-03T06:55:43.397Z,94445.97
2018-11-03T06:58:12.661Z,94447.63
2018-11-03T07:00:40.867Z,94448.02
2018-11-03T07:03:08.900Z,94444.00
2018-11-03T07:05:36.989Z,94449.09
2018-11-03T07:08:05.512Z,94453.92
2018-11-03T07:10:33.626Z,94449.27
2018-11-03T07:13:01.961Z,94444.14
2018-11-03T07:15:29.959Z,94446.05
2018-11-03T07:17:57.900Z,94444.98
2018-11-03T07:20:28.682Z,94439.45
2018-11-03T07:22:56.971Z,94436.56
2018-11-03T07:25:25.176Z,94444.52
2018-11-03T07:27:53.408Z,94441.24
2018-11-03T07:30:21.712Z,94442.41
2018-11-03T07:32:49.881Z,94441.41
2018-11-03T07:35:18.076Z,94437.61
2018-11-03T07:37:46.207Z,94437.56
2018-11-03T07:40:15.238Z,94437.02
2018-11-03T07:42:43.575Z,94438.38
2018-11-03T07:45:11.682Z,94440.40
2018-11-03T07:47:39.633Z,94444.48
2018-11-03T07:50:09.789Z,94446.34
2018-11-03T07:52:38.068Z,94434.27
2018-11-03T07:55:07.449Z,94435.46
2018-11-03T07:57:35.883Z,94433.56
2018-11-03T08:00:04.525Z,94435.38
2018-11-03T08:02:32.798Z,94438.34
2018-11-03T08:05:00.948Z,94433.70
2018-11-03T08:07:29.142Z,94425.95
2018-11-03T08:09:57.431Z,94427.39
2018-11-03T08:12:25.501Z,94427.73
2018-11-03T08:14:53.510Z,94425.36
2018-11-03T08:17:21.490Z,94415.80
2018-11-03T08:19:49.805Z,94419.52
2018-11-03T08:22:17.867Z,94416.32
2018-11-03T08:24:45.913Z,94417.09
2018-11-03T08:27:14.020Z,94422.71
2018-11-03T08:29:41.956Z,94413.08
2018-11-03T08:32:09.984Z,94411.50
2018-11-03T08:34:38.021Z,94416.27
2018-11-03T08:37:06.128Z,94408.86
2018-11-03T08:39:34.128Z,94397.00
2018-11-03T08:42:02.136Z,94402.42
2018-11-03T08:44:30.093Z,94404.97
2018-11-03T08:46:58.141Z,94402.21
2018-11-03T08:49:26.083Z,94404.87
2018-11-03T08:51:54.048Z,94397.69
2018-11-03T08:54:22.013Z,94398.49
2018-11-03T08:56:50.036Z,94396.38
2018-11-03T08:59:18.183Z,94393.06
2018-11-03T09:01:46.228Z,94400.36
2018-11-03T09:04:14.193Z,94391.04
2018-11-03T09:06:42.322Z,94397.69
2018-11-03T09:09:10.530Z,94391.80
2018-11-03T09:11:38.575Z,94385.95
2018-11-03T09:14:06.964Z,94383.92
2018-11-03T09:16:35.074Z,94379.81
2018-11-03T09:19:03.347Z,94375.66
2018-11-03T09:21:31.568Z,94374.77
2018-11-03T09:23:59.641Z,94370.46
2018-11-03T09:26:27.665Z,94361.13
2018-11-03T09:28:55.692Z,94356.23
2018-11-03T09:31:23.744Z,94362.47
2018-11-03T09:33:51.745Z,94362.80
2018-11-03T09:36:19.947Z,94354.20
2018-11-03T09:38:48.184Z,94349.54
2018-11-03T09:41:16.004Z,94338.48
2018-11-03T09:43:44.138Z,94339.66
2018-11-03T09:46:12.144Z,94329.65
2018-11-03T09:48:40.232Z,94331.67
2018-11-03T09:51:08.390Z,94327.87
2018-11-03T09:53:36.553Z,94330.53
2018-11-03T09:56:04.667Z,94323.22
2018-11-03T09:58:32.946Z,94319.11
2018-11-03T10:01:01.024Z,94315.71
2018-11-03T10:03:29.165Z,94307.95
2018-11-03T10:05:57.398Z,94307.09
2018-11-03T10:08:25.773Z,94308.36
2018-11-03T10:10:54.002Z,94306.52
2018-11-03T10:13:22.250Z,94297.69
2018-11-03T10:15:50.407Z,94296.23
2018-11-03T10:18:18.426Z,94288.81
2018-11-03T10:20:46.667Z,94291.01
2018-11-03T10:23:14.956Z,94279.83
2018-11-03T10:25:43.180Z,94282.28
2018-11-03T10:28:11.588Z,94279.20
2018-11-03T10:30:39.743Z,94271.03
2018-11-03T10:33:07.884Z,94269.11
2018-11-03T10:35:36.068Z,94266.30
2018-11-03T10:38:04.521Z,94265.23
2018-11-03T10:40:32.834Z,94258.61
2018-11-03T10:43:01.111Z,94250.16
2018-11-03T10:45:29.294Z,94251.06
2018-11-03T10:47:57.495Z,94245.91
2018-11-03T10:50:25.748Z,94243.40
2018-11-03T10:52:54.446Z,94235.38
2018-11-03T10:55:22.683Z,94233.53
2018-11-03T10:57:50.962Z,94227.95
2018-11-03T11:00:25.758Z,94230.20
2018-11-03T11:03:00.055Z,94235.61
2018-11-03T11:05:34.455Z,94227.61
2018-11-03T11:08:08.900Z,94229.84
2018-11-03T11:10:42.634Z,94220.20
2018-11-03T11:13:18.911Z,94223.16
2018-11-03T11:15:48.199Z,94222.27
2018-11-03T11:18:16.632Z,94208.09
2018-11-03T11:20:45.737Z,94204.42
2018-11-03T11:23:14.306Z,94205.53
2018-11-03T11:25:42.823Z,94202.23
2018-11-03T11:28:11.074Z,94201.90
2018-11-03T11:30:41.646Z,94198.83
2018-11-03T11:33:11.604Z,94197.95
2018-11-03T11:35:40.125Z,94197.86
2018-11-03T11:38:09.632Z,94199.84
2018-11-03T11:40:38.771Z,94195.61
2018-11-03T11:43:09.535Z,94192.77
2018-11-03T11:45:38.008Z,94190.81
2018-11-03T11:48:06.382Z,94190.20
2018-11-03T11:50:34.678Z,94184.55
2018-11-03T11:53:03.067Z,94186.88
2018-11-03T11:55:31.663Z,94180.36
2018-11-03T11:58:00.126Z,94183.00
2018-11-03T12:00:28.590Z,94171.23
2018-11-03T12:02:57.089Z,94169.50
2018-11-03T12:05:25.409Z,94169.40
2018-11-03T12:07:54.097Z,94163.62
2018-11-03T12:10:22.614Z,94166.22
2018-11-03T12:12:51.403Z,94168.09
2018-11-03T12:15:19.832Z,94172.52
2018-11-03T12:17:48.174Z,94172.66
2018-11-03T12:20:16.519Z,94166.49
2018-11-03T12:22:44.913Z,94167.27
2018-11-03T12:25:13.265Z,94170.27
2018-11-03T12:27:42.175Z,94161.20
2018-11-03T12:30:13.146Z,94173.78
2018-11-03T12:32:41.595Z,94163.56
2018-11-03T12:35:10.775Z,94166.34
2018-11-03T12:37:39.922Z,94169.89
2018-11-03T12:40:11.725Z,94163.52
2018-11-03T12:42:40.057Z,94165.08
2018-11-03T12:45:09.185Z,94165.80
2018-11-03T12:47:37.542Z,94167.89
2018-11-03T12:50:07.557Z,94171.84
2018-11-03T12:52:36.202Z,94164.77
2018-11-03T12:55:05.107Z,94158.36
2018-11-03T12:57:33.370Z,94170.20
2018-11-03T13:00:01.758Z,94165.19
2018-11-03T13:02:30.483Z,94161.22
2018-11-03T13:04:58.919Z,94159.34
2018-11-03T13:07:27.080Z,94159.79
2018-11-03T13:09:55.526Z,94161.46
2018-11-03T13:12:23.887Z,94157.70
2018-11-03T13:14:52.366Z,94165.98
2018-11-03T13:17:21.613Z,94165.36
2018-11-03T13:19:51.087Z,94169.45
2018-11-03T13:22:19.486Z,94168.84
2018-11-03T13:24:47.642Z,94165.95
2018-11-03T13:27:15.806Z,94161.76
2018-11-03T13:29:44.018Z,94159.55
2018-11-03T13:32:12.229Z,94161.20
2018-11-03T13:34:40.595Z,94155.72
2018-11-03T13:37:08.791Z,94160.57
2018-11-03T13:39:37.095Z,94162.06
2018-11-03T13:42:05.538Z,94160.02
2018-11-03T13:44:34.185Z,94154.28
2018-11-03T13:47:02.779Z,94162.66
2018-11-03T13:49:31.497Z,94159.86
2018-11-03T13:51:59.930Z,94153.19
2018-11-03T13:54:28.059Z,94154.39
2018-11-03T13:56:56.289Z,94152.16
2018-11-03T13:59:24.437Z,94154.89
2018-11-03T14:01:52.672Z,94155.20
2018-11-03T14:04:20.887Z,94152.33
2018-11-03T14:06:49.001Z,94152.01
2018-11-03T14:09:17.273Z,94156.52
2018-11-03T14:11:45.593Z,94149.64
2018-11-03T14:14:13.934Z,94146.87
2018-11-03T14:16:42.371Z,94149.59
2018-11-03T14:19:10.631Z,94140.23
2018-11-03T14:21:38.892Z,94137.08
2018-11-03T14:24:07.042Z,94135.27
2018-11-03T14:26:35.259Z,94139.01
2018-11-03T14:29:03.595Z,94137.63
2018-11-03T14:31:32.052Z,94136.88
2018-11-03T14:34:00.482Z,94136.32
2018-11-03T14:36:28.864Z,94139.69
2018-11-03T14:38:57.900Z,94141.09
2018-11-03T14:41:26.464Z,94135.84
2018-11-03T14:43:54.869Z,94139.06
2018-11-03T14:46:23.739Z,94143.09
2018-11-03T14:48:52.094Z,94138.29
2018-11-03T14:51:20.491Z,94138.38
2018-11-03T14:53:49.202Z,94139.05
2018-11-03T14:56:17.605Z,94137.53
2018-11-03T14:58:46.919Z,94134.70
2018-11-03T15:01:15.259Z,94134.65
2018-11-03T15:03:43.586Z,94138.23
2018-11-03T15:06:11.714Z,94141.30
2018-11-03T15:08:40.145Z,94144.02
2018-11-03T15:11:08.843Z,94150.92
2018-11-03T15:13:37.173Z,94157.17
2018-11-03T15:16:05.837Z,94151.03
2018-11-03T15:18:34.158Z,94148.27
2018-11-03T15:21:03.116Z,94154.31
2018-11-03T15:23:31.224Z,94152.73
2018-11-03T15:25:59.469Z,94148.62
2018-11-03T15:28:27.824Z,94148.30
2018-11-03T15:30:55.948Z,94154.23
2018-11-03T15:33:24.093Z,94149.77
2018-11-03T15:35:52.469Z,94150.59
2018-11-03T15:38:20.720Z,94158.83
2018-11-03T15:40:49.550Z,94153.31
2018-11-03T15:43:18.133Z,94152.39
2018-11-03T15:45:46.486Z,94150.09
2018-11-03T15:48:14.980Z,94155.24
2018-11-03T15:50:49.136Z,94152.70
2018-11-03T15:53:17.607Z,94143.72
2018-11-03T15:55:45.931Z,94146.49
2018-11-03T15:58:14.440Z,94156.66
2018-11-03T16:00:43.017Z,94153.77
2018-11-03T16:03:11.239Z,94152.83
2018-11-03T16:05:39.432Z,94156.02
2018-11-03T16:08:07.584Z,94146.83
2018-11-03T16:10:35.745Z,94157.63
2018-11-03T16:13:04.069Z,94155.61
2018-11-03T16:15:32.433Z,94161.05
2018-11-03T16:18:01.199Z,94158.05
2018-11-03T16:20:30.281Z,94160.19
2018-11-03T16:22:58.748Z,94159.70
2018-11-03T16:25:27.093Z,94166.25
2018-11-03T16:27:55.314Z,94162.55
2018-11-03T16:30:23.908Z,94154.33
2018-11-03T16:32:52.260Z,94167.73
2018-11-03T16:35:20.715Z,94175.69
2018-11-03T16:37:48.864Z,94172.27
2018-11-03T16:40:17.566Z,94175.45
2018-11-03T16:42:46.086Z,94176.45
2018-11-03T16:45:15.631Z,94178.98
2018-11-03T16:47:43.996Z,94178.66
2018-11-03T16:50:13.814Z,94181.97
2018-11-03T16:52:42.471Z,94179.41
2018-11-03T16:55:11.818Z,94182.56
2018-11-03T16:57:40.091Z,94186.39
2018-11-03T17:00:10.632Z,94189.44
2018-11-03T17:02:39.097Z,94190.32
2018-11-03T17:05:07.999Z,94194.19
2018-11-03T17:07:36.297Z,94195.98
2018-11-03T17:10:06.540Z,94200.16
2018-11-03T17:12:34.978Z,94202.80
2018-11-03T17:15:03.220Z,94202.94
2018-11-03T17:17:31.507Z,94205.08
2018-11-03T17:20:00.273Z,94213.17
2018-11-03T17:22:28.771Z,94205.59
2018-11-03T17:24:57.211Z,94208.96
2018-11-03T17:27:25.892Z,94202.34
2018-11-03T17:29:54.250Z,94212.80
2018-11-03T17:32:22.434Z,94208.83
2018-11-03T17:34:50.688Z,94205.84
2018-11-03T17:37:19.112Z,94212.56
2018-11-03T17:39:47.482Z,94214.25
2018-11-03T17:42:15.670Z,94209.17
2018-11-03T17:44:43.857Z,94212.67
2018-11-03T17:47:12.048Z,94204.64
2018-11-03T17:49:40.374Z,94202.94
2018-11-03T17:52:08.604Z,94208.91
2018-11-03T17:54:37.925Z,94209.59
2018-11-03T17:57:06.061Z,94209.16
2018-11-03T17:59:34.270Z,94221.44
2018-11-03T18:02:02.805Z,94219.83
2018-11-03T18:04:31.173Z,94215.23
2018-11-03T18:06:59.798Z,94222.99
2018-11-03T18:09:28.549Z,94230.34
2018-11-03T18:11:56.798Z,94234.87
2018-11-03T18:14:25.317Z,94238.52
2018-11-03T18:16:53.795Z,94246.80
2018-11-03T18:19:22.053Z,94247.41
2018-11-03T18:21:50.584Z,94244.80
2018-11-03T18:24:18.859Z,94255.42
2018-11-03T18:26:47.482Z,94254.64
2018-11-03T18:29:15.813Z,94255.86
2018-11-03T18:31:44.609Z,94253.41
2018-11-03T18:34:13.145Z,94254.37
2018-11-03T18:36:41.692Z,94254.23
2018-11-03T18:39:11.225Z,94256.87
2018-11-03T18:41:39.917Z,94253.96
2018-11-03T18:44:08.934Z,94251.85
2018-11-03T18:46:37.405Z,94254.74
2018-11-03T18:49:05.858Z,94251.38
2018-11-03T18:51:34.365Z,94254.30
2018-11-03T18:54:02.846Z,94261.80
2018-11-03T18:56:31.414Z,94252.88
2018-11-03T18:58:59.830Z,94254.92
2018-11-03T19:01:28.197Z,94263.02
2018-11-03T19:03:56.463Z,94262.45
2018-11-03T19:06:24.864Z,94267.72
2018-11-03T19:08:53.130Z,94266.59
2018-11-03T19:11:21.423Z,94272.52
2018-11-03T19:13:49.952Z,94269.52
2018-11-03T19:16:18.287Z,94267.39
2018-11-03T19:18:46.752Z,94276.22
2018-11-03T19:21:15.225Z,94273.60
2018-11-03T19:23:43.699Z,94272.41
2018-11-03T19:26:12.155Z,94277.66
2018-11-03T19:28:40.512Z,94279.05
2018-11-03T19:31:09.114Z,94274.91
2018-11-03T19:33:37.404Z,94278.89
2018-11-03T19:36:06.298Z,94276.84
2018-11-03T19:38:34.769Z,94274.18
2018-11-03T19:41:02.976Z,94272.47
2018-11-03T19:43:31.190Z,94276.23
2018-11-03T19:45:59.332Z,94279.13
2018-11-03T19:48:27.509Z,94284.39
2018-11-03T19:50:55.825Z,94283.27
2018-11-03T19:53:24.007Z,94291.72
2018-11-03T19:55:52.394Z,94288.44
2018-11-03T19:58:20.675Z,94290.42
2018-11-03T20:00:48.881Z,94277.45
2018-11-03T20:03:17.156Z,94287.96
2018-11-03T20:05:45.328Z,94291.81
2018-11-03T20:08:13.451Z,94289.05
2018-11-03T20:10:41.795Z,94299.52
2018-11-03T20:13:09.963Z,94296.33
2018-11-03T20:15:38.143Z,94303.20
2018-11-03T20:18:06.439Z,94308.94
2018-11-03T20:20:34.493Z,94311.08
2018-11-03T20:23:02.754Z,94306.41
2018-11-03T20:25:30.860Z,94310.94
2018-11-03T20:27:59.050Z,94310.23
2018-11-03T20:30:27.291Z,94311.28
2018-11-03T20:32:55.850Z,94310.75
2018-11-03T20:35:24.112Z,94314.70
2018-11-03T20:37:52.273Z,94307.91
2018-11-03T20:40:20.481Z,94315.28
2018-11-03T20:42:48.739Z,94318.00
2018-11-03T20:45:17.055Z,94314.12
2018-11-03T20:47:45.206Z,94314.70
2018-11-03T20:50:14.232Z,94318.67
2018-11-03T20:52:42.516Z,94317.52
2018-11-03T20:55:11.554Z,94323.77
2018-11-03T20:57:40.038Z,94315.61
2018-11-03T21:00:10.323Z,94321.31
2018-11-03T21:02:38.571Z,94318.78
2018-11-03T21:05:07.658Z,94324.74
2018-11-03T21:07:35.828Z,94322.91
2018-11-03T21:10:04.277Z,94327.50
2018-11-03T21:12:32.450Z,94326.06
2018-11-03T21:15:00.559Z,94320.16
2018-11-03T21:17:28.819Z,94312.86
2018-11-03T21:19:57.113Z,94319.59
2018-11-03T21:22:25.329Z,94316.78
2018-11-03T21:24:53.504Z,94316.88
2018-11-03T21:27:21.676Z,94313.00
2018-11-03T21:29:49.952Z,94312.91
2018-11-03T21:32:18.249Z,94302.91
2018-11-03T21:34:46.461Z,94308.52
2018-11-03T21:37:14.596Z,94303.02
2018-11-03T21:39:42.828Z,94300.28
2018-11-03T21:42:11.003Z,94295.28
2018-11-03T21:44:39.450Z,94296.67
2018-11-03T21:47:07.827Z,94303.56
2018-11-03T21:49:35.885Z,94297.64
2018-11-03T21:52:04.369Z,94290.61
2018-11-03T21:54:32.610Z,94282.37
2018-11-03T21:57:01.575Z,94280.33
2018-11-03T21:59:29.913Z,94278.37
2018-11-03T22:01:58.033Z,94283.29
2018-11-03T22:04:26.016Z,94274.64
2018-11-03T22:06:53.991Z,94275.63
2018-11-03T22:09:22.035Z,94277.06
2018-11-03T22:11:50.056Z,94273.14
2018-11-03T22:14:18.085Z,94268.33
2018-11-03T22:16:46.116Z,94270.81
2018-11-03T22:19:14.253Z,94271.99
2018-11-03T22:21:42.215Z,94272.28
2018-11-03T22:24:10.087Z,94267.95
2018-11-03T22:26:38.012Z,94269.52
2018-11-03T22:29:06.137Z,94274.91
2018-11-03T22:31:34.103Z,94268.28
2018-11-03T22:34:02.064Z,94270.30
2018-11-03T22:36:30.240Z,94271.76
2018-11-03T22:38:58.925Z,94277.52
2018-11-03T22:41:27.023Z,94286.19
2018-11-03T22:43:55.093Z,94281.31
2018-11-03T22:46:23.075Z,94279.91
2018-11-03T22:48:51.158Z,94281.50
2018-11-03T22:51:19.214Z,94282.62
2018-11-03T22:53:47.141Z,94279.42
2018-11-03T22:56:15.162Z,94272.52
2018-11-03T22:58:43.151Z,94275.52
2018-11-03T23:01:11.043Z,94269.09
2018-11-03T23:03:39.000Z,94267.52
2018-11-03T23:06:07.031Z,94263.79
2018-11-03T23:08:35.030Z,94266.19
2018-11-03T23:11:03.055Z,94263.37
2018-11-03T23:13:31.080Z,94260.50
2018-11-03T23:15:59.367Z,94255.03
2018-11-03T23:18:27.310Z,94261.09
2018-11-03T23:20:55.273Z,94257.81
2018-11-03T23:23:23.225Z,94261.57
2018-11-03T23:25:51.121Z,94266.38
2018-11-03T23:28:19.072Z,94270.83
2018-11-03T23:30:46.982Z,94263.25
2018-11-03T23:33:14.920Z,94278.23
2018-11-03T23:35:42.840Z,94277.48
2018-11-03T23:38:10.877Z,94268.87
2018-11-03T23:40:38.769Z,94271.73
2018-11-03T23:43:06.704Z,94263.80
2018-11-03T23:45:34.596Z,94269.70
2018-11-03T23:48:02.559Z,94268.20
2018-11-03T23:50:30.558Z,94270.10
2018-11-03T23:52:58.407Z,94266.70
2018-11-03T23:55:26.345Z,94270.64
2018-11-03T23:57:54.517Z,94269.11
